createdAt,value
2019-05-16T00:00:25.224Z,100434.63
2019-05-16T00:02:59.084Z,100437.65
2019-05-16T00:05:53.286Z,100436.05
2019-05-16T00:08:30.988Z,100434.75
2019-05-16T00:11:08.531Z,100432.55
2019-05-16T00:13:41.589Z,100436.16
2019-05-16T00:16:15.446Z,100431.41
2019-05-16T00:18:49.042Z,100424.23
2019-05-16T00:21:22.540Z,100425.27
2019-05-16T00:23:55.785Z,100421.48
2019-05-16T00:26:29.837Z,100418.61
2019-05-16T00:29:08.023Z,100423.34
2019-05-16T00:31:40.860Z,100421.64
2019-05-16T00:34:15.209Z,100416.41
2019-05-16T00:36:52.560Z,100410.98
2019-05-16T00:39:27.965Z,100408.57
2019-05-16T00:42:03.652Z,100407.62
2019-05-16T00:44:38.737Z,100404.65
2019-05-16T00:47:13.017Z,100404.06
2019-05-16T00:49:47.811Z,100396.39
2019-05-16T00:52:20.857Z,100394.98
2019-05-16T00:54:53.901Z,100393.75
2019-05-16T00:57:28.156Z,100396.56
2019-05-16T01:00:03.269Z,100392.03
2019-05-16T01:02:38.150Z,100386.33
2019-05-16T01:05:14.373Z,100388.48
2019-05-16T01:07:48.144Z,100382.90
2019-05-16T01:10:22.919Z,100380.75
2019-05-16T01:12:58.412Z,100376.24
2019-05-16T01:15:55.022Z,100371.64
2019-05-16T01:18:28.771Z,100367.74
2019-05-16T01:21:04.371Z,100371.86
2019-05-16T01:23:39.558Z,100366.91
2019-05-16T01:26:12.843Z,100377.02
2019-05-16T01:28:48.583Z,100372.64
2019-05-16T01:31:21.370Z,100366.27
2019-05-16T01:33:55.385Z,100365.20
2019-05-16T01:36:36.608Z,100366.22
2019-05-16T01:39:10.150Z,100366.53
2019-05-16T01:41:42.731Z,100363.21
2019-05-16T01:44:18.189Z,100359.30
2019-05-16T01:46:51.151Z,100357.59
2019-05-16T01:49:23.873Z,100357.78
2019-05-16T01:51:57.905Z,100355.40
2019-05-16T01:54:31.053Z,100353.14
2019-05-16T01:57:03.767Z,100348.24
2019-05-16T01:59:37.967Z,100344.41
2019-05-16T02:02:10.744Z,100344.91
2019-05-16T02:04:43.480Z,100344.10
2019-05-16T02:07:16.042Z,100341.03
2019-05-16T02:09:48.645Z,100338.24
2019-05-16T02:12:21.265Z,100340.91
2019-05-16T02:14:53.948Z,100333.41
2019-05-16T02:17:28.818Z,100326.28
2019-05-16T02:20:02.107Z,100330.75
2019-05-16T02:22:35.662Z,100330.75
2019-05-16T02:25:09.629Z,100323.82
2019-05-16T02:27:48.849Z,100322.30
2019-05-16T02:30:24.218Z,100317.89
2019-05-16T02:32:56.990Z,100319.63
2019-05-16T02:35:31.129Z,100315.89
2019-05-16T02:38:05.455Z,100316.45
2019-05-16T02:40:41.534Z,100311.55
2019-05-16T02:43:15.382Z,100309.98
2019-05-16T02:45:51.951Z,100303.17
2019-05-16T02:48:25.086Z,100299.61
2019-05-16T02:51:01.789Z,100297.63
2019-05-16T02:53:34.840Z,100297.64
2019-05-16T02:56:07.398Z,100297.92
2019-05-16T02:58:44.840Z,100293.70
2019-05-16T03:01:21.351Z,100292.08
2019-05-16T03:03:55.482Z,100285.20
2019-05-16T03:06:32.061Z,100281.53
2019-05-16T03:09:10.907Z,100278.55
2019-05-16T03:11:46.966Z,100279.67
2019-05-16T03:14:24.406Z,100271.86
2019-05-16T03:17:03.441Z,100274.45
2019-05-16T03:19:41.786Z,100263.48
2019-05-16T03:22:22.124Z,100263.65
2019-05-16T03:25:01.267Z,100260.78
2019-05-16T03:27:35.309Z,100263.41
2019-05-16T03:30:07.961Z,100261.70
2019-05-16T03:35:54.586Z,100262.92
2019-05-16T03:38:30.863Z,100263.19
2019-05-16T03:41:30.676Z,100256.95
2019-05-16T03:44:03.842Z,100259.11
2019-05-16T03:46:37.349Z,100262.02
2019-05-16T03:49:11.491Z,100260.45
2019-05-16T03:51:44.504Z,100256.80
2019-05-16T03:54:17.089Z,100259.20
2019-05-16T03:56:51.371Z,100259.56
2019-05-16T03:59:24.051Z,100253.50
2019-05-16T04:01:56.617Z,100252.66
2019-05-16T04:04:30.897Z,100245.27
2019-05-16T04:07:03.887Z,100248.11
2019-05-16T04:09:36.445Z,100246.41
2019-05-16T04:12:10.795Z,100241.49
2019-05-16T04:14:43.718Z,100246.67
2019-05-16T04:17:20.936Z,100245.50
2019-05-16T04:19:54.392Z,100245.59
2019-05-16T04:22:31.769Z,100246.69
2019-05-16T04:25:05.319Z,100243.47
2019-05-16T04:27:41.248Z,100247.25
2019-05-16T04:30:17.464Z,100244.34
2019-05-16T04:32:51.049Z,100244.07
2019-05-16T04:35:23.893Z,100245.75
2019-05-16T04:37:56.690Z,100247.75
2019-05-16T04:40:31.171Z,100253.45
2019-05-16T04:43:03.877Z,100253.83
2019-05-16T04:45:36.467Z,100247.88
2019-05-16T04:48:11.211Z,100244.78
2019-05-16T04:50:44.075Z,100249.42
2019-05-16T04:53:16.901Z,100249.48
2019-05-16T04:55:51.627Z,100243.20
2019-05-16T04:58:24.921Z,100239.43
2019-05-16T05:00:57.837Z,100241.08
2019-05-16T05:03:31.582Z,100236.84
2019-05-16T05:06:04.550Z,100228.01
2019-05-16T05:08:50.469Z,100228.28
2019-05-16T05:11:31.843Z,100227.50
2019-05-16T05:14:05.529Z,100223.52
2019-05-16T05:16:41.106Z,100225.28
2019-05-16T05:19:14.590Z,100223.07
2019-05-16T05:21:47.166Z,100218.49
2019-05-16T05:24:19.764Z,100212.86
2019-05-16T05:26:52.461Z,100211.20
2019-05-16T05:29:25.132Z,100215.09
2019-05-16T05:32:03.489Z,100209.78
2019-05-16T05:34:39.870Z,100213.66
2019-05-16T05:37:12.784Z,100213.48
2019-05-16T05:39:45.885Z,100212.73
2019-05-16T05:42:19.896Z,100213.27
2019-05-16T05:44:53.093Z,100212.43
2019-05-16T05:47:30.498Z,100209.92
2019-05-16T05:50:05.351Z,100216.44
2019-05-16T05:52:40.824Z,100211.22
2019-05-16T05:55:14.089Z,100215.06
2019-05-16T05:57:46.777Z,100212.92
2019-05-16T06:00:21.142Z,100207.75
2019-05-16T06:02:53.988Z,100219.28
2019-05-16T06:05:26.778Z,100219.76
2019-05-16T06:08:00.283Z,100224.88
2019-05-16T06:10:33.164Z,100223.16
2019-05-16T06:13:05.773Z,100222.53
2019-05-16T06:15:39.996Z,100221.67
2019-05-16T06:18:12.642Z,100221.45
2019-05-16T06:20:45.446Z,100217.12
2019-05-16T06:23:20.587Z,100219.72
2019-05-16T06:25:53.905Z,100210.35
2019-05-16T06:28:26.483Z,100208.32
2019-05-16T06:31:01.804Z,100212.06
2019-05-16T06:33:35.107Z,100203.87
2019-05-16T06:36:11.822Z,100207.64
2019-05-16T06:38:44.810Z,100204.48
2019-05-16T06:41:19.982Z,100201.92
2019-05-16T06:43:53.344Z,100200.41
2019-05-16T06:46:27.121Z,100198.21
2019-05-16T06:48:59.740Z,100199.61
2019-05-16T06:51:32.382Z,100208.38
2019-05-16T06:54:05.058Z,100200.05
2019-05-16T06:56:39.904Z,100195.22
2019-05-16T06:59:14.699Z,100194.56
2019-05-16T07:01:50.059Z,100195.77
2019-05-16T07:04:26.298Z,100192.21
2019-05-16T07:07:02.804Z,100192.23
2019-05-16T07:09:36.043Z,100187.46
2019-05-16T07:12:10.485Z,100183.55
2019-05-16T07:14:46.425Z,100186.45
2019-05-16T07:17:20.207Z,100183.52
2019-05-16T07:19:53.048Z,100184.54
2019-05-16T07:22:31.219Z,100173.66
2019-05-16T07:25:04.767Z,100172.55
2019-05-16T07:27:40.097Z,100174.80
2019-05-16T07:30:19.791Z,100174.78
2019-05-16T07:32:53.611Z,100170.45
2019-05-16T07:35:31.869Z,100172.16
2019-05-16T07:38:10.708Z,100165.90
2019-05-16T07:40:51.172Z,100163.11
2019-05-16T07:43:25.597Z,100160.01
2019-05-16T07:46:00.359Z,100156.87
2019-05-16T07:48:33.276Z,100157.75
2019-05-16T07:51:05.803Z,100148.34
2019-05-16T07:53:40.277Z,100150.23
2019-05-16T07:56:14.031Z,100149.42
2019-05-16T07:58:46.663Z,100141.65
2019-05-16T08:01:20.040Z,100141.59
2019-05-16T08:03:52.892Z,100139.11
2019-05-16T08:06:26.259Z,100136.94
2019-05-16T08:09:00.367Z,100136.95
2019-05-16T08:11:33.009Z,100136.33
2019-05-16T08:14:10.230Z,100136.36
2019-05-16T08:16:44.472Z,100133.33
2019-05-16T08:19:25.283Z,100132.29
2019-05-16T08:22:01.054Z,100133.03
2019-05-16T08:24:36.176Z,100126.56
2019-05-16T08:27:12.078Z,100125.28
2019-05-16T08:29:51.142Z,100130.66
2019-05-16T08:32:26.233Z,100124.91
2019-05-16T08:35:01.129Z,100125.97
2019-05-16T08:37:42.534Z,100127.72
2019-05-16T08:40:21.619Z,100125.67
2019-05-16T08:42:54.323Z,100118.17
2019-05-16T08:45:26.824Z,100120.84
2019-05-16T08:48:00.238Z,100123.48
2019-05-16T08:50:34.983Z,100116.28
2019-05-16T08:53:11.893Z,100118.94
2019-05-16T08:55:46.092Z,100115.67
2019-05-16T08:58:22.405Z,100113.51
2019-05-16T09:00:55.857Z,100106.85
2019-05-16T09:03:32.083Z,100108.41
2019-05-16T09:06:05.404Z,100107.50
2019-05-16T09:08:38.071Z,100105.22
2019-05-16T09:11:29.868Z,100109.23
2019-05-16T09:14:11.829Z,100102.77
2019-05-16T09:16:47.514Z,100101.50
2019-05-16T09:19:22.594Z,100100.56
2019-05-16T09:21:58.045Z,100097.93
2019-05-16T09:24:31.025Z,100087.36
2019-05-16T09:27:03.565Z,100084.96
2019-05-16T09:29:36.979Z,100078.18
2019-05-16T09:32:17.037Z,100073.67
2019-05-16T09:34:57.952Z,100074.89
2019-05-16T09:37:31.513Z,100071.29
2019-05-16T09:40:06.981Z,100071.19
2019-05-16T09:42:47.420Z,100070.76
2019-05-16T09:45:21.902Z,100064.39
2019-05-16T09:47:57.367Z,100050.77
2019-05-16T09:50:30.958Z,100054.83
2019-05-16T09:53:07.225Z,100050.26
2019-05-16T09:55:40.364Z,100045.34
2019-05-16T09:58:17.699Z,100046.06
2019-05-16T10:00:51.651Z,100046.25
2019-05-16T10:03:30.817Z,100046.00
2019-05-16T10:06:07.708Z,100049.64
2019-05-16T10:08:43.200Z,100041.85
2019-05-16T10:11:18.451Z,100040.33
2019-05-16T10:13:52.075Z,100037.09
2019-05-16T10:16:30.436Z,100040.06
2019-05-16T10:19:07.587Z,100026.52
2019-05-16T10:21:41.809Z,100019.64
2019-05-16T10:24:16.875Z,100023.64
2019-05-16T10:26:53.942Z,100018.73
2019-05-16T10:29:28.604Z,100022.34
2019-05-16T10:32:01.193Z,100018.04
2019-05-16T10:34:33.949Z,100022.20
2019-05-16T10:37:07.302Z,100007.97
2019-05-16T10:39:40.520Z,100007.47
2019-05-16T10:42:24.988Z,100005.57
2019-05-16T10:45:03.466Z,100007.52
2019-05-16T10:47:37.117Z,99991.32
2019-05-16T10:50:10.326Z,99999.22
2019-05-16T10:52:42.841Z,99984.23
2019-05-16T10:55:17.717Z,99989.36
2019-05-16T10:57:52.493Z,99980.92
2019-05-16T11:00:57.723Z,99982.84
2019-05-16T11:03:48.842Z,99974.76
2019-05-16T11:06:25.749Z,99962.22
2019-05-16T11:09:01.513Z,99970.35
2019-05-16T11:11:36.805Z,99947.22
2019-05-16T11:14:11.161Z,99953.59
2019-05-16T11:16:47.173Z,99949.59
2019-05-16T11:19:24.434Z,99965.75
2019-05-16T11:21:59.162Z,99969.05
2019-05-16T11:24:33.429Z,99969.52
2019-05-16T11:27:07.483Z,99968.03
2019-05-16T11:29:40.396Z,99968.38
2019-05-16T11:32:13.096Z,99960.31
2019-05-16T11:34:47.933Z,99957.48
2019-05-16T11:37:27.756Z,99951.16
2019-05-16T11:40:02.404Z,99951.59
2019-05-16T11:42:37.783Z,99943.27
2019-05-16T11:45:16.425Z,99940.10
2019-05-16T11:47:49.922Z,99949.80
2019-05-16T11:50:23.966Z,99942.70
2019-05-16T11:52:58.585Z,99943.30
2019-05-16T11:55:35.023Z,99933.02
2019-05-16T11:58:11.147Z,99929.22
2019-05-16T12:00:44.370Z,99909.14
2019-05-16T12:03:17.185Z,99915.70
2019-05-16T12:05:49.897Z,99913.88
2019-05-16T12:08:23.358Z,99915.42
2019-05-16T12:10:55.921Z,99910.41
2019-05-16T12:13:32.820Z,99906.92
2019-05-16T12:16:07.592Z,99897.92
2019-05-16T12:18:42.011Z,99904.58
2019-05-16T12:21:17.857Z,99909.30
2019-05-16T12:23:50.483Z,99885.53
2019-05-16T12:26:28.214Z,99892.50
2019-05-16T12:29:02.028Z,99895.73
2019-05-16T12:31:37.148Z,99886.34
2019-05-16T12:34:11.304Z,99883.77
2019-05-16T12:36:47.258Z,99886.88
2019-05-16T12:39:26.807Z,99874.29
2019-05-16T12:42:08.421Z,99867.76
2019-05-16T12:44:42.937Z,99867.29
2019-05-16T12:47:16.637Z,99857.81
2019-05-16T12:49:57.587Z,99853.02
2019-05-16T12:52:34.055Z,99865.20
2019-05-16T12:55:09.017Z,99857.77
2019-05-16T12:57:43.743Z,99862.02
2019-05-16T13:00:27.675Z,99856.67
2019-05-16T13:03:02.692Z,99852.88
2019-05-16T13:05:37.658Z,99851.63
2019-05-16T13:08:12.640Z,99845.47
2019-05-16T13:10:48.516Z,99850.00
2019-05-16T13:13:22.891Z,99837.45
2019-05-16T13:15:57.763Z,99832.33
2019-05-16T13:18:32.016Z,99826.00
2019-05-16T13:21:06.843Z,99828.91
2019-05-16T13:23:46.741Z,99823.01
2019-05-16T13:26:23.960Z,99825.09
2019-05-16T13:28:59.490Z,99826.37
2019-05-16T13:31:33.857Z,99826.05
2019-05-16T13:34:07.749Z,99821.59
2019-05-16T13:36:41.391Z,99821.61
2019-05-16T13:39:17.139Z,99818.03
2019-05-16T13:41:52.874Z,99830.14
2019-05-16T13:44:27.634Z,99827.00
2019-05-16T13:47:01.272Z,99819.60
2019-05-16T13:49:38.665Z,99814.17
2019-05-16T13:52:16.683Z,99816.58
2019-05-16T13:54:49.403Z,99808.61
2019-05-16T13:57:29.335Z,99813.31
2019-05-16T14:00:03.880Z,99805.52
2019-05-16T14:02:57.576Z,99795.77
2019-05-16T14:05:32.758Z,99789.81
2019-05-16T14:08:16.892Z,99787.48
2019-05-16T14:11:02.631Z,99796.91
2019-05-16T14:13:42.872Z,99791.77
2019-05-16T14:16:33.753Z,99791.33
2019-05-16T14:19:33.320Z,99778.69
2019-05-16T14:22:07.647Z,99768.45
2019-05-16T14:24:43.595Z,99779.82
2019-05-16T14:27:17.951Z,99784.39
2019-05-16T14:29:51.294Z,99785.29
2019-05-16T14:32:25.219Z,99776.16
2019-05-16T14:34:58.951Z,99790.67
2019-05-16T14:37:31.871Z,99781.27
2019-05-16T14:40:07.934Z,99783.62
2019-05-16T14:42:40.699Z,99774.87
2019-05-16T14:45:22.004Z,99771.77
2019-05-16T14:47:57.851Z,99781.73
2019-05-16T14:50:31.346Z,99775.97
2019-05-16T14:53:09.063Z,99755.97
2019-05-16T14:56:52.729Z,99767.81
2019-05-16T14:59:36.367Z,99764.09
2019-05-16T15:02:23.799Z,99758.38
2019-05-16T15:05:30.458Z,99757.17
2019-05-16T15:08:08.616Z,99753.92
2019-05-16T15:10:46.744Z,99743.13
2019-05-16T15:13:19.724Z,99745.02
2019-05-16T15:15:56.946Z,99737.19
2019-05-16T15:18:29.771Z,99739.44
2019-05-16T15:21:08.492Z,99741.87
2019-05-16T15:23:45.489Z,99738.84
2019-05-16T15:26:27.289Z,99735.67
2019-05-16T15:29:03.154Z,99730.27
2019-05-16T15:31:39.580Z,99733.81
2019-05-16T15:34:16.457Z,99728.52
2019-05-16T15:36:50.063Z,99721.38
2019-05-16T15:39:24.135Z,99721.25
2019-05-16T15:42:00.376Z,99718.55
2019-05-16T15:44:32.927Z,99714.90
2019-05-16T15:47:08.315Z,99706.00
2019-05-16T15:49:43.026Z,99707.26
2019-05-16T15:52:17.958Z,99701.92
2019-05-16T15:55:18.726Z,99694.03
2019-05-16T15:58:07.481Z,99691.44
2019-05-16T16:00:51.942Z,99687.16
2019-05-16T16:03:37.970Z,99687.73
2019-05-16T16:06:22.414Z,99679.81
2019-05-16T16:09:10.884Z,99677.02
2019-05-16T16:11:44.896Z,99663.95
2019-05-16T16:14:17.534Z,99666.07
2019-05-16T16:16:53.659Z,99666.28
2019-05-16T16:19:28.214Z,99663.85
2019-05-16T16:22:02.863Z,99664.87
2019-05-16T16:24:35.456Z,99656.94
2019-05-16T16:27:12.577Z,99649.02
2019-05-16T16:29:48.097Z,99646.52
2019-05-16T16:32:21.400Z,99643.91
2019-05-16T16:34:57.344Z,99652.87
2019-05-16T16:37:30.323Z,99647.69
2019-05-16T16:40:09.981Z,99647.95
2019-05-16T16:42:47.455Z,99654.14
2019-05-16T16:45:31.616Z,99651.37
2019-05-16T16:48:04.382Z,99655.88
2019-05-16T16:50:41.856Z,99648.31
2019-05-16T16:53:17.607Z,99643.55
2019-05-16T16:55:51.040Z,99650.59
2019-05-16T16:58:26.420Z,99645.51
2019-05-16T17:01:02.545Z,99643.81
2019-05-16T17:03:36.397Z,99644.39
2019-05-16T17:06:17.706Z,99636.67
2019-05-16T17:08:58.522Z,99637.42
2019-05-16T17:11:31.487Z,99632.84
2019-05-16T17:14:06.826Z,99629.50
2019-05-16T17:16:40.478Z,99625.37
2019-05-16T17:19:14.550Z,99622.69
2019-05-16T17:22:02.051Z,99618.19
2019-05-16T17:24:43.997Z,99617.02
2019-05-16T17:27:20.661Z,99609.51
2019-05-16T17:29:53.572Z,99606.99
2019-05-16T17:32:28.095Z,99599.09
2019-05-16T17:35:03.572Z,99599.95
2019-05-16T17:37:37.633Z,99602.50
2019-05-16T17:40:17.599Z,99591.16
2019-05-16T17:43:01.194Z,99592.67
2019-05-16T17:45:34.046Z,99594.77
2019-05-16T17:48:07.498Z,99596.35
2019-05-16T17:50:46.535Z,99592.89
2019-05-16T17:53:21.558Z,99588.02
2019-05-16T17:55:58.953Z,99590.78
2019-05-16T17:58:41.745Z,99586.91
2019-05-16T18:01:17.519Z,99590.16
2019-05-16T18:03:50.620Z,99585.28
2019-05-16T18:06:27.162Z,99582.53
2019-05-16T18:09:17.692Z,99579.79
2019-05-16T18:12:10.011Z,99579.73
2019-05-16T18:15:17.419Z,99578.40
2019-05-16T18:18:07.339Z,99581.11
2019-05-16T18:20:55.918Z,99577.21
2019-05-16T18:23:36.876Z,99572.84
2019-05-16T18:26:13.007Z,99569.07
2019-05-16T18:28:49.018Z,99571.38
2019-05-16T18:31:23.037Z,99569.50
2019-05-16T18:34:09.547Z,99568.14
2019-05-16T18:36:46.672Z,99568.35
2019-05-16T18:39:22.216Z,99566.69
2019-05-16T18:42:00.641Z,99560.77
2019-05-16T18:44:36.759Z,99563.86
2019-05-16T18:47:17.410Z,99558.39
2019-05-16T18:49:51.263Z,99557.83
2019-05-16T18:52:26.481Z,99553.52
2019-05-16T18:55:04.094Z,99556.21
2019-05-16T18:57:39.373Z,99556.56
2019-05-16T19:00:17.794Z,99558.83
2019-05-16T19:02:51.741Z,99556.65
2019-05-16T19:05:26.498Z,99548.97
2019-05-16T19:08:09.102Z,99542.72
2019-05-16T19:10:43.409Z,99547.05
2019-05-16T19:13:17.860Z,99544.95
2019-05-16T19:15:53.322Z,99542.89
2019-05-16T19:18:30.353Z,99545.48
2019-05-16T19:21:12.600Z,99547.23
2019-05-16T19:23:49.234Z,99542.90
2019-05-16T19:26:27.300Z,99541.32
2019-05-16T19:29:06.473Z,99547.91
2019-05-16T19:31:40.564Z,99546.55
2019-05-16T19:34:16.276Z,99548.16
2019-05-16T19:36:49.156Z,99546.45
2019-05-16T19:39:26.037Z,99547.47
2019-05-16T19:42:06.504Z,99549.98
2019-05-16T19:44:40.095Z,99553.38
2019-05-16T19:47:13.768Z,99551.25
2019-05-16T19:49:49.356Z,99553.98
2019-05-16T19:52:23.003Z,99550.95
2019-05-16T19:54:59.572Z,99555.80
2019-05-16T19:57:43.387Z,99550.66
2019-05-16T20:00:19.887Z,99548.17
2019-05-16T20:02:52.686Z,99549.32
2019-05-16T20:05:26.672Z,99545.80
2019-05-16T20:07:59.448Z,99548.50
2019-05-16T20:10:32.932Z,99550.84
2019-05-16T20:13:08.293Z,99545.64
2019-05-16T20:15:41.722Z,99546.19
2019-05-16T20:18:24.388Z,99545.22
2019-05-16T20:20:57.654Z,99540.57
2019-05-16T20:23:31.153Z,99533.68
2019-05-16T20:26:08.006Z,99539.03
2019-05-16T20:28:47.446Z,99533.73
2019-05-16T20:31:22.283Z,99528.78
2019-05-16T20:33:57.114Z,99530.43
2019-05-16T20:36:31.444Z,99523.91
2019-05-16T20:39:08.401Z,99527.62
2019-05-16T20:41:41.310Z,99530.86
2019-05-16T20:44:17.246Z,99531.30
2019-05-16T20:46:50.148Z,99532.82
2019-05-16T20:49:24.141Z,99532.79
2019-05-16T20:51:58.618Z,99529.00
2019-05-16T20:54:37.660Z,99527.09
2019-05-16T20:57:17.105Z,99521.78
2019-05-16T20:59:51.569Z,99523.42
2019-05-16T21:02:27.005Z,99516.23
2019-05-16T21:05:00.394Z,99518.34
2019-05-16T21:07:37.168Z,99516.55
2019-05-16T21:10:16.792Z,99516.73
2019-05-16T21:12:51.222Z,99512.30
2019-05-16T21:15:26.342Z,99513.86
2019-05-16T21:17:59.880Z,99514.98
2019-05-16T21:20:34.698Z,99508.82
2019-05-16T21:23:09.671Z,99506.23
2019-05-16T21:25:42.420Z,99510.28
2019-05-16T21:28:19.723Z,99505.87
2019-05-16T21:30:53.741Z,99505.04
2019-05-16T21:33:27.432Z,99501.38
2019-05-16T21:36:01.265Z,99498.54
2019-05-16T21:38:36.524Z,99492.41
2019-05-16T21:41:11.544Z,99489.56
2019-05-16T21:43:46.952Z,99483.47
2019-05-16T21:46:27.278Z,99484.48
2019-05-16T21:49:01.026Z,99482.55
2019-05-16T21:51:34.227Z,99479.98
2019-05-16T21:54:18.196Z,99480.81
2019-05-16T21:56:57.147Z,99478.18
2019-05-16T21:59:31.099Z,99476.03
2019-05-16T22:02:06.063Z,99469.63
2019-05-16T22:04:39.198Z,99469.07
2019-05-16T22:07:11.822Z,99465.95
2019-05-16T22:09:47.061Z,99470.05
2019-05-16T22:12:20.021Z,99471.78
2019-05-16T22:14:56.972Z,99470.47
2019-05-16T22:17:30.789Z,99466.48
2019-05-16T22:20:04.012Z,99464.33
2019-05-16T22:22:38.149Z,99460.33
2019-05-16T22:25:16.764Z,99453.45
2019-05-16T22:27:50.159Z,99454.88
2019-05-16T22:30:23.129Z,99453.11
2019-05-16T22:32:56.651Z,99452.00
2019-05-16T22:35:30.469Z,99453.11
2019-05-16T22:38:03.601Z,99450.42
2019-05-16T22:40:39.464Z,99448.64
2019-05-16T22:43:17.218Z,99447.64
2019-05-16T22:45:52.007Z,99439.33
2019-05-16T22:48:26.706Z,99436.93
2019-05-16T22:50:59.794Z,99429.37
2019-05-16T22:53:33.308Z,99436.16
2019-05-16T22:56:07.404Z,99428.20
2019-05-16T22:58:41.091Z,99424.16
2019-05-16T23:01:17.586Z,99426.34
2019-05-16T23:03:51.643Z,99423.27
2019-05-16T23:06:26.914Z,99421.37
2019-05-16T23:09:00.327Z,99417.09
2019-05-16T23:11:33.290Z,99413.48
2019-05-16T23:14:10.840Z,99407.59
2019-05-16T23:16:47.247Z,99408.94
2019-05-16T23:19:21.718Z,99401.59
2019-05-16T23:21:56.699Z,99404.55
2019-05-16T23:24:31.338Z,99401.34
2019-05-16T23:27:06.953Z,99396.17
2019-05-16T23:29:40.742Z,99395.06
2019-05-16T23:32:15.313Z,99392.41
2019-05-16T23:34:48.125Z,99390.45
2019-05-16T23:37:23.304Z,99387.77
2019-05-16T23:39:57.555Z,99388.49
2019-05-16T23:42:30.045Z,99384.41
2019-05-16T23:45:08.332Z,99382.45
2019-05-16T23:47:43.197Z,99379.53
2019-05-16T23:50:21.637Z,99376.73
2019-05-16T23:52:56.218Z,99372.55
2019-05-16T23:55:30.211Z,99367.98
2019-05-16T23:58:06.687Z,99364.91
